Time;durP1;ratioP1;P1;durP2;ratioP2;P2;SDS_P1;SDS_P2;PMS_P1;PMS_P2;Temp;Humidity;BMP_temperature;BMP_pressure;BME280_temperature;BME280_humidity;BME280_pressure;Samples;Min_cycle;Max_cycle;Signal;HPM_P1;HPM_P2
2023/09/29 00:01:42;;;;;;;17.30;9.07;;;;;;;-142.57;74.78;59347.72;5053230;28;20022;-82
2023/09/29 00:04:08;;;;;;;25.13;9.27;;;;;;;-142.57;74.07;59303.25;5053288;28;20029;-82
2023/09/29 00:06:34;;;;;;;19.08;10.20;;;;;;;-142.57;75.52;59238.53;5051180;28;20033;-81
2023/09/29 00:09:01;;;;;;;16.58;9.82;;;;;;;-142.57;76.75;59181.91;5052123;28;20037;-81
2023/09/29 00:11:27;;;;;;;20.30;9.50;;;;;;;-142.57;77.33;59210.22;5052312;28;20026;-82
2023/09/29 00:13:52;;;;;;;20.65;9.70;;;;;;;-142.57;77.66;59157.63;5053042;28;20034;-81
2023/09/29 00:16:18;;;;;;;19.35;10.48;;;;;;;-142.57;80.04;59076.75;5052625;28;20043;-81
2023/09/29 00:18:43;;;;;;;16.63;10.20;;;;;;;-142.57;78.90;59157.63;5052264;28;20045;-81
2023/09/29 00:21:09;;;;;;;16.27;10.10;;;;;;;-142.57;78.11;59260.78;5052261;28;20064;-83
2023/09/29 00:23:35;;;;;;;23.73;11.00;;;;;;;-142.57;78.56;59171.78;5048638;28;20091;-81
2023/09/29 00:26:01;;;;;;;15.52;9.30;;;;;;;-142.57;78.51;59254.72;5063814;28;20076;-81
2023/09/29 00:28:27;;;;;;;17.63;10.35;;;;;;;-142.57;78.30;59250.66;5051373;28;20026;-81
2023/09/29 00:30:53;;;;;;;25.10;11.25;;;;;;;-142.57;80.30;59141.47;5040105;28;20494;-81
2023/09/29 00:33:18;;;;;;;23.83;10.65;;;;;;;-142.57;79.63;59157.63;5036009;28;20080;-81
2023/09/29 00:35:44;;;;;;;18.30;10.75;;;;;;;-142.57;79.32;59173.81;5036852;28;20033;-81
2023/09/29 00:38:10;;;;;;;26.90;10.70;;;;;;;-142.57;82.35;59024.16;5036297;28;20136;-82
2023/09/29 00:40:35;;;;;;;15.75;9.80;;;;;;;-142.57;84.67;58953.38;5035756;28;20083;-82
2023/09/29 00:43:03;;;;;;;21.67;11.05;;;;;;;-142.57;86.79;58919.00;5050916;28;20037;-81
2023/09/29 00:45:29;;;;;;;24.60;12.13;;;;;;;-142.57;87.85;58858.34;5036068;28;20138;-81
2023/09/29 00:47:59;;;;;;;24.35;12.32;;;;;;;-142.57;90.39;58777.47;5034914;28;20120;-80
2023/09/29 00:50:26;;;;;;;20.38;12.45;;;;;;;-142.57;90.06;58854.31;5034794;28;20034;-80
2023/09/29 00:52:54;;;;;;;22.30;11.93;;;;;;;-142.57;91.46;58785.56;5034491;28;20039;-80
2023/09/29 00:55:26;;;;;;;16.90;10.65;;;;;;;-142.57;88.94;58971.59;5033883;28;20133;-81
2023/09/29 00:57:52;;;;;;;19.52;11.75;;;;;;;-142.57;90.78;58840.16;5033449;28;20048;-81
2023/09/29 01:02:50;;;;;;;19.98;11.48;;;;;;;-142.57;94.09;58781.50;5033646;28;20133;-80
2023/09/29 01:05:15;;;;;;;26.80;11.73;;;;;;;-142.57;94.51;58737.03;5034777;28;20482;-81
2023/09/29 01:07:43;;;;;;;16.50;11.40;;;;;;;-142.57;92.79;58844.19;5034243;28;20072;-82
2023/09/29 01:10:13;;;;;;;22.23;10.52;;;;;;;-142.57;91.39;58872.50;5049839;28;20041;-81
2023/09/29 01:12:40;;;;;;;23.10;12.25;;;;;;;-142.57;90.81;58927.09;5034406;28;20042;-82
2023/09/29 01:15:07;;;;;;;22.73;11.45;;;;;;;-142.57;91.24;58939.22;5034417;28;20036;-82
2023/09/29 01:17:33;;;;;;;16.90;10.80;;;;;;;-142.57;90.41;58959.47;5032916;28;20044;-80
2023/09/29 01:19:58;;;;;;;20.48;10.80;;;;;;;-142.57;89.29;59018.09;5049489;28;20479;-83
2023/09/29 01:22:24;;;;;;;26.65;11.38;;;;;;;-142.57;91.19;58890.69;5034554;28;20041;-81
2023/09/29 01:24:50;;;;;;;21.80;12.02;;;;;;;-142.57;94.45;58741.06;5032578;28;20096;-81
2023/09/29 01:27:15;;;;;;;17.92;11.10;;;;;;;-142.57;94.55;58817.91;5049248;28;20029;-81
2023/09/29 01:29:44;;;;;;;22.45;11.45;;;;;;;-142.57;95.26;58757.25;5048973;28;20172;-82
2023/09/29 01:32:14;;;;;;;18.75;11.88;;;;;;;-142.57;93.62;58846.22;5034468;28;20033;-81
2023/09/29 01:34:40;;;;;;;22.13;12.50;;;;;;;-142.57;94.87;58781.50;5034050;28;20030;-80
2023/09/29 01:37:07;;;;;;;20.83;11.48;;;;;;;-142.57;94.61;58826.00;5048945;28;20080;-80
2023/09/29 01:39:33;;;;;;;19.38;11.57;;;;;;;-142.57;98.52;58696.59;5033856;28;20045;-81
2023/09/29 01:41:59;;;;;;;23.08;12.07;;;;;;;-142.57;99.68;58656.13;5033514;28;20530;-80
2023/09/29 01:44:25;;;;;;;19.05;12.57;;;;;;;-142.57;100.00;58619.75;5033585;28;20040;-83
2023/09/29 01:46:51;;;;;;;18.25;11.98;;;;;;;-142.57;100.00;58555.03;5033598;28;20025;-80
2023/09/29 01:49:16;;;;;;;18.88;12.20;;;;;;;-142.57;100.00;58518.66;5032310;28;20399;-82
2023/09/29 01:51:44;;;;;;;18.20;12.05;;;;;;;-142.57;100.00;58567.16;5033687;28;20064;-80
2023/09/29 01:54:11;;;;;;;19.50;12.95;;;;;;;-142.57;100.00;58506.50;5033293;28;20057;-81
2023/09/29 01:56:36;;;;;;;20.23;13.00;;;;;;;-142.57;100.00;58526.72;5051715;28;20088;-80
2023/09/29 01:59:02;;;;;;;23.63;13.68;;;;;;;-142.57;100.00;58447.88;5052187;28;20032;-81
2023/09/29 02:01:29;;;;;;;26.90;14.68;;;;;;;-142.57;100.00;58542.91;5052003;28;20033;-81
2023/09/29 02:03:55;;;;;;;22.85;13.50;;;;;;;-142.57;100.00;58429.69;5053104;28;20036;-81
2023/09/29 02:06:20;;;;;;;22.98;14.55;;;;;;;-142.57;100.00;58393.28;5053202;28;20445;-80
2023/09/29 02:08:46;;;;;;;28.63;14.30;;;;;;;-142.57;100.00;58373.06;5051864;28;20032;-81
2023/09/29 02:11:12;;;;;;;19.75;13.85;;;;;;;-142.57;100.00;58381.16;5053223;28;20489;-79
2023/09/29 02:13:38;;;;;;;31.05;13.80;;;;;;;-142.57;100.00;58348.81;5053503;28;20033;-81
2023/09/29 02:16:14;;;;;;;22.50;14.73;;;;;;;-142.57;100.00;58296.22;5052093;28;20037;-82
2023/09/29 02:18:40;;;;;;;25.58;15.20;;;;;;;-142.57;100.00;58269.94;5052473;28;20037;-82
2023/09/29 02:21:06;;;;;;;21.58;14.82;;;;;;;-142.57;100.00;58340.72;5052274;28;20027;-81
2023/09/29 02:23:33;;;;;;;31.50;15.15;;;;;;;-142.57;100.00;58389.25;5052138;28;20093;-82
2023/09/29 02:26:02;;;;;;;21.77;14.20;;;;;;;-142.57;100.00;58395.31;5052500;28;20489;-81
2023/09/29 02:28:31;;;;;;;22.33;13.60;;;;;;;-142.57;100.00;58385.19;5053222;28;20116;-80
2023/09/29 02:31:02;;;;;;;24.38;14.20;;;;;;;-142.57;100.00;58393.28;5053480;28;20487;-80
2023/09/29 02:33:28;;;;;;;22.33;13.55;;;;;;;-142.57;100.00;58425.63;5053515;28;20501;-82
2023/09/29 02:35:53;;;;;;;28.50;14.60;;;;;;;-142.57;100.00;58462.03;5053069;28;20029;-82
2023/09/29 02:38:19;;;;;;;23.20;14.43;;;;;;;-142.57;100.00;58413.50;5053475;28;20076;-80
2023/09/29 02:40:48;;;;;;;24.45;14.73;;;;;;;-142.57;100.00;58403.41;5055774;28;20037;-80
2023/09/29 02:43:15;;;;;;;26.45;13.90;;;;;;;-142.57;100.00;58419.56;5060221;28;20029;-81
2023/09/29 02:45:41;;;;;;;26.52;14.57;;;;;;;-142.57;100.00;58423.63;5058526;28;20401;-80
2023/09/29 02:48:06;;;;;;;19.25;13.43;;;;;;;-142.57;100.00;58445.84;5057942;28;20025;-81
2023/09/29 02:50:35;;;;;;;29.95;13.90;;;;;;;-142.57;100.00;58528.75;5058167;28;20036;-79
2023/09/29 02:53:02;;;;;;;28.05;14.70;;;;;;;-142.57;100.00;58492.34;5059400;28;20091;-81
2023/09/29 02:55:28;;;;;;;23.70;14.45;;;;;;;-142.57;100.00;58453.94;5057925;28;20102;-81
2023/09/29 02:57:54;;;;;;;25.27;15.15;;;;;;;-142.57;100.00;58506.50;5059022;28;20060;-81
2023/09/29 03:00:21;;;;;;;28.50;15.43;;;;;;;-142.57;100.00;58569.19;5058965;28;20037;-80
2023/09/29 03:02:48;;;;;;;25.42;15.38;;;;;;;-142.57;100.00;58534.81;5041170;28;20550;-80
2023/09/29 03:05:15;;;;;;;26.05;14.52;;;;;;;-142.57;100.00;58571.22;5058917;28;20037;-81
2023/09/29 03:07:43;;;;;;;29.75;14.50;;;;;;;-142.57;100.00;58498.44;5059223;28;20099;-81
2023/09/29 03:10:08;;;;;;;29.25;15.68;;;;;;;-142.57;100.00;58551.00;5060358;28;20052;-80
2023/09/29 03:12:36;;;;;;;31.85;15.60;;;;;;;-142.57;100.00;58518.66;5063839;28;20057;-81
2023/09/29 03:15:02;;;;;;;24.65;14.57;;;;;;;-142.57;100.00;58607.63;5065396;28;20036;-81
2023/09/29 03:17:30;;;;;;;26.05;14.48;;;;;;;-142.57;100.00;58656.13;5062927;28;20447;-81
2023/09/29 03:19:58;;;;;;;24.75;14.48;;;;;;;-142.57;100.00;58724.88;5059059;28;20359;-82
2023/09/29 03:22:24;;;;;;;33.20;15.25;;;;;;;-142.57;100.00;58761.28;5059464;28;20035;-79
2023/09/29 03:24:50;;;;;;;28.42;14.82;;;;;;;-142.57;100.00;58708.72;5059510;28;20037;-81
2023/09/29 03:27:17;;;;;;;23.95;13.98;;;;;;;-142.57;100.00;58743.09;5058425;28;20086;-80
2023/09/29 03:29:43;;;;;;;23.92;14.70;;;;;;;-142.57;100.00;58737.03;5059494;28;20044;-81
2023/09/29 03:32:09;;;;;;;26.35;14.45;;;;;;;-142.57;99.74;58789.59;5059671;28;20033;-81
2023/09/29 03:34:34;;;;;;;33.25;15.00;;;;;;;-142.57;99.83;58773.41;5059421;28;20025;-81
2023/09/29 03:37:00;;;;;;;24.15;14.95;;;;;;;-142.57;100.00;58676.34;5059452;28;20061;-81
2023/09/29 03:39:26;;;;;;;25.75;14.82;;;;;;;-142.57;100.00;58633.91;5059133;28;20045;-80
2023/09/29 03:41:51;;;;;;;27.95;15.68;;;;;;;-142.57;100.00;58563.13;5059019;28;20037;-79
2023/09/29 03:44:17;;;;;;;28.73;15.48;;;;;;;-142.57;100.00;58559.09;5059085;28;20047;-80
2023/09/29 03:46:43;;;;;;;24.77;16.08;;;;;;;-142.57;100.00;58518.66;5059415;28;20040;-80
2023/09/29 03:49:12;;;;;;;35.92;15.77;;;;;;;-142.57;100.00;58498.44;5058820;28;20511;-82
2023/09/29 03:51:38;;;;;;;39.20;14.90;;;;;;;-142.57;100.00;58512.56;5056989;28;20041;-81
2023/09/29 03:54:04;;;;;;;26.52;15.85;;;;;;;-142.57;100.00;58403.41;5055714;28;20509;-81
2023/09/29 03:56:29;;;;;;;30.80;16.40;;;;;;;-142.57;100.00;58405.41;5055869;28;20033;-80
2023/09/29 03:58:55;;;;;;;23.02;15.02;;;;;;;-142.57;100.00;58413.50;5055737;28;20043;-81
2023/09/29 04:01:22;;;;;;;29.67;15.63;;;;;;;-142.57;100.00;58407.44;5055567;28;20033;-82
2023/09/29 04:03:47;;;;;;;27.23;14.82;;;;;;;-142.57;100.00;58407.44;5054303;28;20044;-82
2023/09/29 04:06:14;;;;;;;22.83;15.57;;;;;;;-142.57;100.00;58290.16;5055933;28;20041;-81
2023/09/29 04:08:40;;;;;;;33.47;15.57;;;;;;;-142.57;100.00;58320.50;5055341;28;20433;-80
2023/09/29 04:11:05;;;;;;;25.60;16.35;;;;;;;-142.57;100.00;58312.41;5055101;28;20032;-81
2023/09/29 04:13:31;;;;;;;30.50;15.32;;;;;;;-142.57;100.00;58247.72;5055173;28;20482;-80
2023/09/29 04:15:59;;;;;;;38.38;15.15;;;;;;;-142.57;100.00;58259.84;5053698;28;20119;-83
2023/09/29 04:18:24;;;;;;;28.77;14.50;;;;;;;-142.57;100.00;58296.22;5055215;28;20053;-81
2023/09/29 04:20:50;;;;;;;35.35;14.48;;;;;;;-142.57;100.00;58389.25;5055118;28;20052;-80
2023/09/29 04:23:16;;;;;;;29.67;14.52;;;;;;;-142.57;100.00;58391.25;5055160;28;20124;-82
2023/09/29 04:25:43;;;;;;;44.47;15.30;;;;;;;-142.57;100.00;58451.91;5055376;28;20041;-83
2023/09/29 04:28:08;;;;;;;32.75;13.57;;;;;;;-142.57;100.00;58449.91;5054772;28;20044;-83
2023/09/29 04:30:34;;;;;;;29.90;13.70;;;;;;;-142.57;100.00;58427.66;5055876;28;20029;-84
2023/09/29 04:33:00;;;;;;;31.17;13.35;;;;;;;-142.57;99.43;58447.88;5054998;28;20029;-81
2023/09/29 04:35:25;;;;;;;28.83;14.10;;;;;;;-142.57;98.03;58453.94;5054798;28;20148;-82
2023/09/29 04:37:51;;;;;;;29.33;12.77;;;;;;;-142.57;97.33;58466.06;5053241;28;20379;-81
2023/09/29 04:40:16;;;;;;;30.13;13.05;;;;;;;-142.57;98.33;58369.03;5054683;28;20040;-87
2023/09/29 04:42:43;;;;;;;26.92;13.85;;;;;;;-142.57;98.38;58421.59;5055763;28;20029;-85
2023/09/29 04:45:08;;;;;;;27.85;13.88;;;;;;;-142.57;99.07;58352.84;5055551;28;20025;-80
2023/09/29 04:47:34;;;;;;;27.17;13.02;;;;;;;-142.57;100.00;58290.16;5054370;28;20060;-82
2023/09/29 04:49:59;;;;;;;24.23;13.10;;;;;;;-142.57;99.25;58336.66;5054688;28;20041;-77
2023/09/29 04:52:26;;;;;;;27.17;13.85;;;;;;;-142.57;100.00;58261.88;5054399;28;20045;-77
2023/09/29 04:54:53;;;;;;;28.10;15.50;;;;;;;-142.57;100.00;58178.97;5053994;28;20116;-78
2023/09/29 04:57:19;;;;;;;26.77;15.93;;;;;;;-142.57;100.00;58156.72;5054538;28;20171;-78
2023/09/29 04:59:45;;;;;;;38.67;15.90;;;;;;;-142.57;100.00;58108.22;5054516;28;20037;-79
2023/09/29 05:02:11;;;;;;;40.70;16.02;;;;;;;-142.57;100.00;58122.34;5054074;28;20028;-83
2023/09/29 05:04:36;;;;;;;35.40;16.42;;;;;;;-142.57;100.00;58255.78;5052904;28;20429;-81
2023/09/29 05:07:03;;;;;;;37.88;16.63;;;;;;;-142.57;100.00;58207.28;5054063;28;20408;-80
2023/09/29 05:09:28;;;;;;;28.35;15.68;;;;;;;-142.57;100.00;58247.72;5054403;28;20033;-80
2023/09/29 05:11:54;;;;;;;33.25;16.30;;;;;;;-142.57;100.00;58336.66;5055051;28;20074;-84
2023/09/29 05:14:20;;;;;;;43.42;17.55;;;;;;;-142.57;100.00;58300.28;5036767;28;20143;-80
2023/09/29 05:16:47;;;;;;;44.55;17.85;;;;;;;-142.57;100.00;58203.22;5054721;28;20083;-81
2023/09/29 05:19:12;;;;;;;46.33;18.73;;;;;;;-142.57;100.00;58227.50;5054287;28;20083;-80
2023/09/29 05:21:38;;;;;;;42.47;18.33;;;;;;;-142.57;100.00;58255.78;5055296;28;20025;-82
2023/09/29 05:24:04;;;;;;;42.95;18.35;;;;;;;-142.57;100.00;58174.94;5054471;28;20111;-80
2023/09/29 05:26:29;;;;;;;60.72;18.75;;;;;;;-142.57;100.00;58183.00;5063881;28;20385;-79
2023/09/29 05:28:55;;;;;;;37.47;18.20;;;;;;;-142.57;100.00;58191.09;5074145;28;20036;-80
2023/09/29 05:31:22;;;;;;;36.80;18.02;;;;;;;-142.57;100.00;58225.47;5073598;28;20033;-81
2023/09/29 05:33:48;;;;;;;35.92;17.42;;;;;;;-142.57;100.00;58239.63;5054625;28;20044;-81
2023/09/29 05:36:14;;;;;;;36.33;18.98;;;;;;;-142.57;100.00;58219.41;5052615;28;20033;-85
2023/09/29 05:38:39;;;;;;;29.08;18.30;;;;;;;-142.57;100.00;58267.94;5053493;28;20140;-85
2023/09/29 05:41:05;;;;;;;31.60;18.65;;;;;;;-142.57;100.00;58308.38;5052995;28;20033;-83
2023/09/29 05:43:30;;;;;;;29.30;18.38;;;;;;;-142.57;100.00;58302.31;5053662;28;20832;-81
2023/09/29 05:45:56;;;;;;;35.65;17.10;;;;;;;-142.57;100.00;58516.63;5053448;28;20432;-84
2023/09/29 05:48:21;;;;;;;36.55;18.20;;;;;;;-142.57;100.00;58526.72;5053537;28;20045;-85
2023/09/29 05:50:47;;;;;;;28.38;17.38;;;;;;;-142.57;100.00;58575.25;5047299;28;20044;-80
2023/09/29 05:53:12;;;;;;;25.45;15.85;;;;;;;-142.57;98.24;58720.84;5048295;28;20044;-79
2023/09/29 05:55:38;;;;;;;28.10;15.82;;;;;;;-142.57;95.39;58866.44;5052509;28;20390;-82
2023/09/29 05:58:04;;;;;;;29.92;16.00;;;;;;;-142.57;92.34;58908.91;5052992;28;20072;-83
2023/09/29 06:00:30;;;;;;;25.55;14.80;;;;;;;-142.57;91.69;58919.00;5053278;28;20048;-80
2023/09/29 06:02:56;;;;;;;27.60;14.13;;;;;;;-142.57;88.04;59058.53;5053272;28;20033;-85
2023/09/29 06:05:21;;;;;;;35.65;13.88;;;;;;;-142.57;82.98;59264.81;5053635;28;20033;-82
2023/09/29 06:07:47;;;;;;;23.40;13.60;;;;;;;-142.57;80.68;59388.19;5053045;28;20361;-83
2023/09/29 06:10:13;;;;;;;40.75;13.20;;;;;;;-142.57;75.85;59818.97;5053489;28;20033;-81
2023/09/29 06:12:40;;;;;;;32.47;13.77;;;;;;;-142.57;77.20;59590.44;5053805;28;20509;-83
2023/09/29 06:15:06;;;;;;;41.47;13.95;;;;;;;-142.57;70.41;60007.09;5053057;28;20060;-84
2023/09/29 06:17:32;;;;;;;27.92;13.32;;;;;;;-142.57;66.97;60193.19;5051855;28;20483;-85
2023/09/29 06:19:58;;;;;;;39.03;13.25;;;;;;;-142.57;66.53;60270.06;5052738;28;20032;-83
2023/09/29 06:22:24;;;;;;;38.17;12.80;;;;;;;-142.57;71.08;59818.97;5053550;28;20033;-87
2023/09/29 06:24:50;;;;;;;22.23;12.75;;;;;;;-142.57;72.62;59723.91;5053566;28;20140;-88
2023/09/29 06:27:15;;;;;;;33.97;13.75;;;;;;;-142.57;68.76;60027.31;5053333;28;20067;-83
2023/09/29 06:29:41;;;;;;;31.33;12.98;;;;;;;-142.57;69.00;60075.84;5049551;28;20471;-83
2023/09/29 06:32:10;;;;;;;27.08;12.40;;;;;;;-142.57;70.83;59760.31;5033530;28;20123;-83
2023/09/29 06:34:36;;;;;;;28.48;13.25;;;;;;;-142.57;69.10;60045.53;5033614;28;20041;-81
2023/09/29 06:37:02;;;;;;;24.70;12.27;;;;;;;-142.57;65.19;60593.72;5034723;28;20037;-83
2023/09/29 06:39:28;;;;;;;34.95;11.32;;;;;;;-142.57;61.11;60852.69;5049665;28;20021;-81
2023/09/29 06:41:53;;;;;;;46.40;11.82;;;;;;;-142.57;64.96;60425.81;5053164;28;20469;-84
2023/09/29 06:44:19;;;;;;;31.90;11.93;;;;;;;-142.57;65.79;60330.72;5052895;28;20033;-82
2023/09/29 06:46:45;;;;;;;42.17;13.38;;;;;;;-142.57;68.60;60039.44;5038368;28;20479;-81
2023/09/29 06:49:10;;;;;;;30.85;13.15;;;;;;;-142.57;68.47;60023.28;5041823;28;20100;-82
2023/09/29 06:51:37;;;;;;;36.22;12.48;;;;;;;-142.57;64.92;60417.72;5053272;28;20428;-81
2023/09/29 06:54:02;;;;;;;30.58;11.25;;;;;;;-142.57;63.13;60759.59;5052827;28;20128;-84
2023/09/29 06:56:28;;;;;;;56.13;13.75;;;;;;;-142.57;60.97;60990.25;5052079;28;20037;-80
2023/09/29 06:58:57;;;;;;;26.38;12.38;;;;;;;-142.57;61.36;60947.75;5053390;28;20061;-80
2023/09/29 07:01:23;;;;;;;52.55;13.57;;;;;;;-142.57;61.26;60974.06;5051900;28;20076;-79
2023/09/29 07:03:49;;;;;;;46.78;12.35;;;;;;;-142.57;61.46;60885.03;5052381;28;20056;-79
2023/09/29 07:06:15;;;;;;;33.20;11.65;;;;;;;-142.57;60.65;60935.63;5051293;28;20105;-79
2023/09/29 07:08:41;;;;;;;29.30;11.90;;;;;;;-142.57;62.03;60858.75;5052684;28;20044;-80
2023/09/29 07:11:06;;;;;;;36.78;11.13;;;;;;;-142.57;61.73;60885.03;5052075;28;20044;-80
2023/09/29 07:13:33;;;;;;;33.42;11.70;;;;;;;-142.57;60.52;61188.53;5052371;28;20028;-78
2023/09/29 07:15:58;;;;;;;25.50;12.20;;;;;;;-142.57;56.22;61767.25;5052304;28;20074;-78
2023/09/29 07:18:24;;;;;;;24.27;12.13;;;;;;;-142.57;53.39;62331.88;5052466;28;20132;-79
2023/09/29 07:20:52;;;;;;;29.45;11.52;;;;;;;-142.57;54.18;61888.66;5050949;28;20579;-81
2023/09/29 07:23:18;;;;;;;22.77;10.98;;;;;;;-142.57;54.33;62012.09;5052626;28;20438;-81
2023/09/29 07:25:44;;;;;;;22.83;11.93;;;;;;;-142.57;52.81;62172.00;5052739;28;20043;-83
2023/09/29 07:28:16;;;;;;;20.35;11.80;;;;;;;-142.57;52.91;62004.00;5058993;28;20024;-82
2023/09/29 07:30:42;;;;;;;;;;;;;;;-142.57;52.42;62111.28;5059183;28;20379;-82
2023/09/29 07:33:09;;;;;;;30.52;12.57;;;;;;;-142.57;53.28;62157.81;5068626;28;19927;-80
2023/09/29 07:35:35;;;;;;;24.23;12.13;;;;;;;-142.57;54.47;61963.53;5048509;28;20451;-81
2023/09/29 07:38:00;;;;;;;20.95;12.43;;;;;;;-142.57;53.54;62186.16;5056214;28;20040;-81
2023/09/29 07:40:26;;;;;;;24.30;11.85;;;;;;;-142.57;51.88;62297.47;5056039;28;20028;-85
2023/09/29 07:42:52;;;;;;;22.77;10.68;;;;;;;-142.57;51.44;62147.69;5055559;28;20090;-80
2023/09/29 07:45:19;;;;;;;17.38;10.70;;;;;;;-142.57;49.75;62414.84;5055330;28;20484;-82
2023/09/29 07:47:44;;;;;;;23.05;10.73;;;;;;;-142.57;49.04;62597.00;5056348;28;20102;-87
2023/09/29 07:50:10;;;;;;;23.70;10.63;;;;;;;-142.57;48.90;62564.63;5053341;28;20037;-85
2023/09/29 07:52:38;;;;;;;24.15;11.02;;;;;;;-142.57;48.17;62825.72;5049046;28;20036;-83
2023/09/29 07:55:09;;;;;;;26.50;11.68;;;;;;;-142.57;48.78;62558.56;5044837;28;20045;-84
2023/09/29 07:57:35;;;;;;;21.02;10.45;;;;;;;-142.57;49.32;62657.72;5044892;28;20043;-86
2023/09/29 08:00:01;;;;;;;23.80;11.10;;;;;;;-142.57;50.20;62609.16;5045908;28;20386;-84
2023/09/29 08:02:37;;;;;;;24.25;11.52;;;;;;;-142.57;49.76;62580.81;5054291;28;20071;-86
2023/09/29 08:05:03;;;;;;;26.17;13.00;;;;;;;-142.57;49.52;62682.03;5057645;28;20730;-81
2023/09/29 08:07:28;;;;;;;28.52;13.13;;;;;;;-142.57;47.06;63507.94;5045302;28;20389;-85
2023/09/29 08:09:54;;;;;;;28.92;14.20;;;;;;;-142.57;47.15;63281.19;5045533;28;20086;-84
2023/09/29 08:12:20;;;;;;;28.52;14.32;;;;;;;-142.57;47.21;63625.34;5044832;28;20466;-85
2023/09/29 08:14:45;;;;;;;42.63;14.45;;;;;;;-142.57;44.76;63985.75;5045765;28;20076;-86
2023/09/29 08:17:11;;;;;;;27.52;12.20;;;;;;;-142.57;45.92;63570.69;5044970;28;20434;-86
2023/09/29 08:19:37;;;;;;;23.55;12.52;;;;;;;-142.57;44.80;63771.13;5045359;28;20033;-85
2023/09/29 08:22:02;;;;;;;18.02;12.18;;;;;;;-142.57;46.17;63463.41;5047556;28;20437;-87
2023/09/29 08:24:30;;;;;;;22.80;12.90;;;;;;;-142.57;45.94;63467.44;5049565;28;20033;-85
2023/09/29 08:26:56;;;;;;;25.52;13.27;;;;;;;-142.57;46.81;63088.88;5048130;28;20449;-83
2023/09/29 08:29:22;;;;;;;27.17;13.07;;;;;;;-142.57;46.85;63597.00;5042910;28;20037;-87
2023/09/29 08:31:47;;;;;;;32.78;12.85;;;;;;;-142.57;45.89;63722.53;5046779;28;20037;-86
2023/09/29 08:34:13;;;;;;;31.00;13.95;;;;;;;-142.57;45.29;63937.16;5047702;28;20082;-83
2023/09/29 08:36:38;;;;;;;24.20;14.25;;;;;;;-142.57;43.62;64293.53;5046597;28;20037;-84
2023/09/29 08:39:04;;;;;;;33.28;16.02;;;;;;;-142.57;43.23;64277.31;5044390;28;20094;-84
2023/09/29 08:41:34;;;;;;;36.08;16.98;;;;;;;-142.57;44.73;64196.31;5047353;28;20071;-86
2023/09/29 08:44:02;;;;;;;39.00;16.30;;;;;;;-142.57;44.30;64125.47;5047106;28;20028;-84
2023/09/29 08:46:29;;;;;;;29.73;16.30;;;;;;;-142.57;44.45;64111.28;5047940;28;20470;-87
2023/09/29 08:48:55;;;;;;;40.17;18.10;;;;;;;-142.57;44.11;64269.22;5045108;28;20100;-81
2023/09/29 08:51:22;;;;;;;30.70;16.20;;;;;;;-142.57;44.27;64378.56;5043290;28;20033;-84
2023/09/29 08:53:52;;;;;;;33.75;16.15;;;;;;;-142.57;41.20;65579.53;5045079;28;20046;-80
2023/09/29 08:56:18;;;;;;;48.53;18.42;;;;;;;-142.57;41.22;65350.66;5043761;28;20116;-81
2023/09/29 08:58:45;;;;;;;45.70;18.77;;;;;;;-142.57;40.86;65247.38;5045089;28;20582;-81
2023/09/29 09:01:11;;;;;;;44.78;20.40;;;;;;;-142.57;42.10;65042.81;5046496;28;20490;-85
2023/09/29 09:03:37;;;;;;;34.53;19.92;;;;;;;-142.57;42.02;65063.06;5051522;28;20039;-84
2023/09/29 09:06:21;;;;;;;38.72;19.05;;;;;;;-142.57;41.63;65073.19;5048001;28;20116;-84
2023/09/29 09:08:49;;;;;;;29.98;19.23;;;;;;;-142.57;42.05;64834.19;5049587;28;20031;-83
2023/09/29 09:11:14;;;;;;;50.97;20.02;;;;;;;-142.57;42.33;64722.81;5044876;28;20495;-81
2023/09/29 09:13:40;;;;;;;31.40;18.55;;;;;;;-142.57;40.55;65530.94;5048606;28;20030;-83
2023/09/29 09:16:07;;;;;;;37.83;20.40;;;;;;;-142.57;40.73;65524.84;5048337;28;20028;-80
2023/09/29 09:18:33;;;;;;;36.42;18.77;;;;;;;-142.57;40.29;65502.56;5047636;28;20071;-86
2023/09/29 09:21:01;;;;;;;31.00;17.52;;;;;;;-142.57;38.29;66314.88;5051718;28;20029;-87
2023/09/29 09:23:37;;;;;;;27.67;17.85;;;;;;;-142.57;35.80;67028.06;5048634;28;20504;-85
2023/09/29 09:26:18;;;;;;;46.10;18.02;;;;;;;-142.57;36.96;66416.19;5053992;28;20045;-83
2023/09/29 09:28:46;;;;;;;26.17;18.05;;;;;;;-142.57;37.40;65893.50;5058610;28;20040;-84
2023/09/29 09:31:12;;;;;;;38.08;19.10;;;;;;;-142.57;37.74;65905.66;5056904;28;20028;-84
2023/09/29 09:33:38;;;;;;;42.72;19.42;;;;;;;-142.57;36.62;66481.00;5046438;28;20084;-83
2023/09/29 09:36:06;;;;;;;31.15;18.25;;;;;;;-142.57;36.87;66635.00;5049853;28;20037;-83
2023/09/29 09:38:35;;;;;;;39.63;18.60;;;;;;;-142.57;37.21;66343.25;5046559;28;20033;-82
2023/09/29 09:41:01;;;;;;;36.35;18.75;;;;;;;-142.57;37.25;66051.53;5045649;28;20097;-86
2023/09/29 09:43:29;;;;;;;37.00;18.55;;;;;;;-142.57;36.10;66726.16;5054611;28;20033;-88
2023/09/29 09:46:06;;;;;;;43.22;19.13;;;;;;;-142.57;35.21;67366.47;5052059;28;20076;-85
2023/09/29 09:48:49;;;;;;;43.45;19.48;;;;;;;-142.57;35.23;67137.50;5038245;28;20033;-87
2023/09/29 09:51:29;;;;;;;27.85;18.77;;;;;;;-142.57;35.69;66807.22;5035942;28;20364;-86
2023/09/29 09:54:02;;;;;;;39.45;17.77;;;;;;;-142.57;34.72;67631.97;5036997;28;20482;-86
2023/09/29 09:56:40;;;;;;;35.15;18.38;;;;;;;-142.57;34.46;67479.97;5038368;28;20033;-85
2023/09/29 09:59:07;;;;;;;36.00;17.67;;;;;;;-142.57;33.93;68122.41;5035983;28;20126;-83
2023/09/29 10:01:34;;;;;;;36.67;16.70;;;;;;;-142.57;32.99;68791.34;5037125;28;20045;-83
2023/09/29 10:04:04;;;;;;;35.17;15.45;;;;;;;-142.57;32.59;68361.59;5035617;28;20033;-82
2023/09/29 10:06:31;;;;;;;30.80;15.25;;;;;;;-142.57;32.69;67850.84;5036001;28;20037;-83
2023/09/29 10:09:00;;;;;;;25.60;14.18;;;;;;;-142.57;31.15;69058.94;5034878;28;20045;-85
2023/09/29 10:11:27;;;;;;;25.15;15.07;;;;;;;-142.57;30.80;69618.50;5037305;28;20022;-81
2023/09/29 10:14:02;;;;;;;36.78;14.85;;;;;;;-142.57;31.38;69509.03;5035709;28;20073;-81
2023/09/29 10:16:28;;;;;;;31.02;14.30;;;;;;;-142.57;30.54;69618.50;5034124;28;20082;-83
2023/09/29 10:18:59;;;;;;;30.33;13.82;;;;;;;-142.57;30.54;69835.47;5034404;28;20037;-87
2023/09/29 10:21:25;;;;;;;23.05;12.82;;;;;;;-142.57;29.81;70326.22;5034673;28;20077;-83
2023/09/29 10:23:51;;;;;;;25.77;14.10;;;;;;;-142.57;29.66;70750.09;5036432;28;20100;-81
2023/09/29 10:26:19;;;;;;;32.70;14.00;;;;;;;-142.57;29.93;70127.47;5035057;28;20143;-83
2023/09/29 10:28:45;;;;;;;36.50;12.63;;;;;;;-142.57;29.44;70510.75;5033855;28;20048;-84
2023/09/29 10:31:14;;;;;;;26.27;12.77;;;;;;;-142.57;29.41;70259.28;5032676;28;20037;-84
2023/09/29 10:34:08;;;;;;;24.92;11.38;;;;;;;-142.57;30.66;68848.09;5033791;28;20037;-85
2023/09/29 10:36:34;;;;;;;19.02;9.38;;;;;;;-142.57;29.61;69403.59;5031179;28;20057;-81
2023/09/29 10:39:04;;;;;;;19.85;9.88;;;;;;;-142.57;29.63;69107.59;5033494;28;20033;-80
2023/09/29 10:41:31;;;;;;;22.08;9.55;;;;;;;-142.57;28.92;69922.66;5033573;28;20045;-85
2023/09/29 10:43:59;;;;;;;26.33;9.15;;;;;;;-142.57;28.58;70397.19;5035048;28;20030;-89
2023/09/29 10:46:25;;;;;;;25.52;9.23;;;;;;;-142.57;28.21;70640.56;5034934;28;20060;-88
2023/09/29 10:48:53;;;;;;;33.03;8.95;;;;;;;-142.57;27.74;71066.50;5041033;28;20037;-83
2023/09/29 10:51:30;;;;;;;22.90;9.70;;;;;;;-142.57;28.49;70460.06;5048098;28;20033;-87
2023/09/29 10:54:02;;;;;;;26.73;7.78;;;;;;;-142.57;28.32;70591.88;5035178;28;20041;-84
2023/09/29 10:56:28;;;;;;;16.92;8.40;;;;;;;-142.57;27.61;71119.22;5034846;28;20128;-85
2023/09/29 10:58:54;;;;;;;25.52;7.90;;;;;;;-142.57;26.98;71411.31;5035318;28;20037;-88
2023/09/29 11:01:35;;;;;;;24.05;7.90;;;;;;;-142.57;27.17;71245.00;5036514;28;20600;-88